Terminal Aerodrome Forecast
Issued by NWS Cleveland, OH

Home | Current Version | Previous Version | Graphics & Text | Print | Product List | Glossary On
Versions: 1 2 3 4 5 6 7 8 9 10 11 12 13 14 15 16 17 18
798
FTUS41 KCLE 260522
TAFTOL
TAF
KTOL 260522Z 2606/2706 28010G18KT P6SM SCT028 OVC035
     FM260800 27010KT P6SM OVC035
     FM261300 24008KT P6SM SCT035 BKN070
     FM261800 22015G25KT P6SM BKN070
     FM270000 22010KT P6SM SCT070=

USA.gov is the U.S. government's official web portal to all federal, state and local government web resources and services.